createdAt,value
2023-03-26T00:03:12.346Z,1364.00
2023-03-26T00:55:12.955Z,1700.00
2023-03-26T00:59:12.965Z,1675.00
2023-03-26T01:03:21.892Z,1676.00
2023-03-26T01:07:13.991Z,1652.00
2023-03-26T02:39:13.509Z,1542.00
2023-03-26T02:43:13.584Z,1508.00
2023-03-26T02:47:13.629Z,1484.00
2023-03-26T02:51:13.710Z,1524.00
2023-03-26T02:55:13.767Z,1449.00
2023-03-26T02:59:13.755Z,1455.00
2023-03-26T03:03:13.879Z,1451.00
2023-03-26T03:07:13.883Z,1414.00
2023-03-26T03:11:14.780Z,1453.00
2023-03-26T03:15:13.945Z,1414.00
2023-03-26T03:19:14.002Z,1441.00
2023-03-26T03:23:14.092Z,1381.00
2023-03-26T03:27:14.167Z,1397.00
2023-03-26T03:31:14.304Z,1377.00
2023-03-26T03:35:14.267Z,1402.00
2023-03-26T03:39:14.351Z,1369.00
2023-03-26T03:43:14.407Z,1358.00
2023-03-26T03:47:14.456Z,1358.00
2023-03-26T03:51:14.511Z,1353.00
2023-03-26T03:55:14.586Z,1370.00
2023-03-26T03:59:14.659Z,1356.00
2023-03-26T04:03:14.765Z,1351.00
2023-03-26T04:07:14.815Z,1362.00
2023-03-26T04:11:14.873Z,1335.00
2023-03-26T04:15:14.878Z,1317.00
2023-03-26T04:19:14.988Z,1331.00
2023-03-26T04:23:15.046Z,1304.00
2023-03-26T04:27:15.074Z,1318.00
2023-03-26T04:31:15.166Z,1315.00
2023-03-26T04:35:15.189Z,1287.00
2023-03-26T04:39:15.252Z,1286.00
2023-03-26T04:43:15.356Z,1302.00
2023-03-26T04:47:15.376Z,1312.00
2023-03-26T04:51:15.413Z,1265.00
2023-03-26T04:55:15.475Z,1278.00
2023-03-26T04:59:15.522Z,1300.00
2023-03-26T05:03:15.611Z,1285.00
2023-03-26T05:07:15.607Z,1281.00
2023-03-26T05:11:15.716Z,1290.00
2023-03-26T05:15:15.805Z,1284.00
2023-03-26T05:19:15.843Z,1299.00
2023-03-26T05:23:15.924Z,1276.00
2023-03-26T05:27:15.966Z,1294.00
2023-03-26T05:31:16.015Z,1270.00
2023-03-26T05:35:16.152Z,1275.00
2023-03-26T05:39:16.202Z,1261.00
2023-03-26T05:43:16.273Z,1255.00
2023-03-26T05:47:16.332Z,1276.00
2023-03-26T05:51:16.496Z,1223.00
2023-03-26T21:07:20.653Z,776.00
2023-03-26T21:11:26.622Z,762.00
2023-03-26T21:15:23.826Z,787.00
2023-03-26T21:19:20.631Z,799.00
2023-03-26T21:23:20.645Z,791.00
2023-03-26T21:31:20.594Z,806.00
2023-03-26T21:35:20.560Z,776.00
2023-03-26T21:39:20.436Z,828.00
2023-03-26T21:43:20.432Z,780.00
2023-03-26T21:47:20.365Z,815.00
2023-03-26T21:51:20.339Z,809.00
2023-03-26T21:55:20.300Z,801.00
2023-03-26T21:59:20.267Z,813.00
2023-03-26T22:03:20.239Z,772.00
2023-03-26T22:07:20.210Z,818.00
2023-03-26T22:11:20.163Z,796.00
2023-03-26T22:15:20.150Z,759.00
2023-03-26T22:19:20.077Z,778.00
2023-03-26T22:23:20.065Z,793.00
2023-03-26T22:27:20.017Z,776.00
2023-03-26T22:31:20.001Z,767.00
2023-03-26T22:35:20.131Z,783.00
2023-03-26T22:39:20.154Z,763.00
2023-03-26T22:43:20.239Z,760.00
2023-03-26T22:47:20.379Z,763.00
2023-03-26T22:51:20.531Z,754.00
2023-03-26T22:55:28.433Z,756.00
2023-03-26T22:59:21.457Z,750.00
2023-03-26T23:03:20.428Z,779.00
2023-03-26T23:07:21.400Z,753.00
2023-03-26T23:11:20.353Z,768.00
2023-03-26T23:15:20.345Z,764.00
2023-03-26T23:19:20.307Z,763.00
2023-03-26T23:23:20.228Z,729.00
2023-03-26T23:27:22.652Z,765.00
2023-03-26T23:31:20.591Z,729.00
2023-03-26T23:35:20.596Z,731.00
2023-03-26T23:39:20.654Z,688.00
2023-03-26T23:43:20.733Z,704.00
2023-03-26T23:47:20.851Z,736.00
2023-03-26T23:51:20.985Z,740.00
2023-03-26T23:55:21.096Z,737.00
2023-03-26T23:59:21.209Z,698.00
